Johnston, IA (50131)

9:58 AM CDT on August 28, 2016 (GMT -0500)
HADS | | Change Station

Elev 910 ft 41.70 °N, 93.69 °W | Updated 58 minutes ago

Scattered Clouds
Scattered Clouds
0.0 °F
Feels Like 0.0 °F
N
2.0
Wind Variable Wind from SSE
Gusts 0.0 mph

Today
High -- | Low -- °F
--% Chance of Precip.
Yesterday
High -- | Low -- °F
Precip. -- in
Pressure 30.12 in
Visibility 10.0 miles
Clouds Few 4500 ft
Scattered Clouds 25000 ft
Dew Point Not available.
Humidity Not available.
Rainfall in
Snow Depth Not available.
6:37 AM 7:53 PM
Waning Crescent, 15% visible
METAR KDSM 281454Z 13006KT 10SM FEW045 SCT250 26/22 A3014 RMK AO2 SLP198 TCU DSNT E-SW T02610222 51012
Pressure 30.12 in
Visibility 10.0 miles
Clouds Few 4500 ft
Scattered Clouds 25000 ft
Dew Point Not available.
Humidity Not available.
Rainfall in
Snow Depth Not available.
6:37 AM 7:53 PM
Waning Crescent, 15% visible
METAR KDSM 281454Z 13006KT 10SM FEW045 SCT250 26/22 A3014 RMK AO2 SLP198 TCU DSNT E-SW T02610222 51012

10-Day Weather Forecast

Almanac

Astronomy

Aug. 28, 2016 Rise Set
Actual Time
Civil Twilight
Nautical Twilight
Astronomical Twilight
Moon
Length of Visible Light
Length of Day
Tomorrow will be .
, % of the Moon is Illuminated

Today's Extremes

State Highs State Lows

Community

WunderPhotos

Upload Photos

1,935,579 photos uploaded!

WunderBlog® & News

Nearby

Air Quality

  Air Quality AQ Index Pollutant
Not available.

Snow Depth

Station Depth Elevation

Earthquake Activity

City Distance Mag. Time & Date
Minimum magnitude displayed is 2.5.

Coastal Water Temperatures

Place Temperature

Stations

Nearby Weather Stations

Station Location Temp. Windchill Dew Point Humidity Wind Precip. Elev Updated Type
                   

Watches & Warnings

There are currently no watches in effect.